Time;durP1;ratioP1;P1;durP2;ratioP2;P2;SDS_P1;SDS_P2;PMS_P1;PMS_P2;Temp;Humidity;BMP_temperature;BMP_pressure;BME280_temperature;BME280_humidity;BME280_pressure;Samples;Min_cycle;Max_cycle;Signal;HPM_P1;HPM_P2
2023/05/24 00:00:45;;;;;;;9.43;3.40;;;11.00;99.90;;;-141.84;61.91;20037.41;5028617;28;20730;-66
2023/05/24 00:03:17;;;;;;;9.13;2.70;;;10.90;99.90;;;-141.84;61.63;20055.69;5030598;28;20306;-66
2023/05/24 00:05:46;;;;;;;5.67;2.77;;;11.00;99.90;;;-141.84;60.75;20063.81;5030924;28;20190;-66
2023/05/24 00:08:15;;;;;;;8.57;3.10;;;11.00;99.90;;;-141.84;61.02;20045.53;5030581;28;20613;-66
2023/05/24 00:10:43;;;;;;;10.50;3.40;;;11.00;99.90;;;-141.84;60.75;20065.84;5030541;28;20315;-67
2023/05/24 00:13:11;;;;;;;6.93;2.83;;;11.00;99.90;;;-141.84;60.74;20059.75;5030850;28;20206;-66
2023/05/24 00:15:40;;;;;;;8.00;3.10;;;11.00;99.90;;;-141.84;60.59;20053.66;5030110;28;20650;-65
2023/05/24 00:18:08;;;;;;;12.23;3.37;;;11.00;99.90;;;-141.84;61.47;20025.22;5030920;28;20233;-66
2023/05/24 00:20:37;;;;;;;9.40;2.63;;;11.00;99.90;;;-141.84;60.54;20076.03;5031027;28;20285;-67
2023/05/24 00:23:06;;;;;;;10.40;3.17;;;11.00;99.90;;;-141.84;61.14;20061.78;5031183;28;20201;-66
2023/05/24 00:25:35;;;;;;;9.23;3.20;;;11.00;99.90;;;-141.84;60.26;20086.19;5030552;28;20620;-66
2023/05/24 00:28:03;;;;;;;10.97;3.13;;;11.00;99.90;;;-141.84;60.36;20086.19;5030624;28;20202;-66
2023/05/24 00:30:31;;;;;;;10.07;3.83;;;11.00;99.90;;;-141.84;59.84;20096.34;5029932;28;20222;-66
2023/05/24 00:32:59;;;;;;;9.57;3.00;;;11.00;99.90;;;-141.84;59.75;20045.53;5030258;28;20337;-65
2023/05/24 00:35:28;;;;;;;9.47;2.77;;;11.00;99.90;;;-141.84;60.82;20033.34;5030188;28;20588;-66
2023/05/24 00:37:57;;;;;;;8.67;2.97;;;10.90;99.90;;;-141.84;61.45;20043.50;5026965;28;20283;-65
2023/05/24 00:40:25;;;;;;;6.03;2.83;;;10.90;99.90;;;-141.84;60.50;20037.41;5021907;28;20673;-66
2023/05/24 00:42:53;;;;;;;9.33;3.00;;;10.90;99.90;;;-141.84;61.06;20013.00;5030158;28;20305;-66
2023/05/24 00:45:22;;;;;;;9.60;3.00;;;10.80;99.90;;;-141.84;61.05;20021.16;5030019;28;20233;-66
2023/05/24 00:47:50;;;;;;;9.93;3.10;;;10.80;99.90;;;-141.84;60.62;20041.47;5030587;28;20202;-66
2023/05/24 00:50:19;;;;;;;7.17;2.90;;;10.80;99.90;;;-141.84;61.27;20031.31;5030244;28;20222;-65
2023/05/24 00:52:51;;;;;;;9.53;2.80;;;10.70;99.90;;;-141.84;61.60;20033.34;5029917;28;20236;-66
2023/05/24 00:55:21;;;;;;;7.43;3.00;;;10.70;99.90;;;-141.84;60.61;20037.41;5030042;28;20194;-67
2023/05/24 00:57:51;;;;;;;9.90;2.90;;;10.80;99.90;;;-141.84;62.08;19974.41;5030315;28;20208;-66
2023/05/24 01:00:19;;;;;;;11.47;3.00;;;10.70;99.90;;;-141.84;62.44;19972.38;5029504;28;20244;-66
2023/05/24 01:02:48;;;;;;;9.83;3.30;;;10.60;99.90;;;-141.84;62.53;19986.59;5030199;28;20280;-67
2023/05/24 01:05:17;;;;;;;10.80;3.30;;;10.50;99.90;;;-141.84;62.74;19988.63;5030003;28;20206;-66
2023/05/24 01:08:09;;;;;;;9.30;3.10;;;10.50;99.90;;;-141.84;62.73;19933.75;5030331;28;20202;-66
2023/05/24 01:10:54;;;;;;;10.47;3.17;;;10.40;99.90;;;-141.84;63.40;19939.84;5030144;28;20293;-65
2023/05/24 01:13:34;;;;;;;7.47;3.10;;;10.40;99.90;;;-141.84;63.03;19939.84;5030125;28;20193;-67
2023/05/24 01:16:11;;;;;;;7.70;2.90;;;10.30;99.90;;;-141.84;63.52;19954.06;5029476;28;20675;-67
2023/05/24 01:18:47;;;;;;;12.10;3.60;;;10.30;99.90;;;-141.84;62.20;20027.25;5030194;28;20284;-66
2023/05/24 01:21:37;;;;;;;12.10;3.10;;;10.30;99.90;;;-141.84;60.93;19992.69;5029597;28;20658;-66
2023/05/24 01:24:21;;;;;;;11.53;3.43;;;10.40;99.90;;;-141.84;60.56;19972.38;5030146;28;20209;-66
2023/05/24 01:27:06;;;;;;;10.80;3.03;;;10.40;99.90;;;-141.84;60.25;20000.81;5030069;28;20276;-67
2023/05/24 01:29:36;;;;;;;6.97;2.50;;;10.50;99.90;;;-141.84;60.98;20010.97;5029944;28;20201;-66
2023/05/24 01:32:06;;;;;;;6.20;2.47;;;10.50;99.90;;;-141.84;60.69;19966.28;5029783;28;20245;-66
2023/05/24 01:34:34;;;;;;;8.83;3.00;;;10.50;99.90;;;-141.84;60.33;20017.09;5030084;28;20456;-66
2023/05/24 01:37:03;;;;;;;10.73;3.23;;;10.50;99.90;;;-141.84;60.30;20008.94;5030057;28;20969;-66
2023/05/24 01:39:31;;;;;;;5.63;2.57;;;10.50;99.90;;;-141.84;60.73;20025.22;5033266;28;20678;-67
2023/05/24 01:42:11;;;;;;;7.87;3.10;;;10.50;99.90;;;-141.84;60.40;20004.88;5033468;28;20285;-66
2023/05/24 01:44:47;;;;;;;8.50;2.83;;;10.50;99.90;;;-141.84;60.11;20008.94;5033031;28;20241;-67
2023/05/24 01:47:31;;;;;;;5.73;2.83;;;10.50;99.90;;;-141.84;59.64;20006.91;5033514;28;20272;-66
2023/05/24 01:50:08;;;;;;;8.73;2.60;;;10.60;99.90;;;-141.84;59.82;20021.16;5033396;28;20187;-67
2023/05/24 01:52:37;;;;;;;7.10;2.57;;;10.60;99.90;;;-141.84;58.82;20061.78;5033590;28;20190;-66
2023/05/24 01:55:09;;;;;;;7.70;2.87;;;10.60;99.90;;;-141.84;59.12;19994.72;5031144;28;20293;-68
2023/05/24 01:57:43;;;;;;;9.43;2.33;;;10.50;99.90;;;-141.84;59.73;19976.44;5033767;28;20194;-66
2023/05/24 02:00:15;;;;;;;8.77;2.83;;;10.50;99.90;;;-141.84;59.71;20010.97;5033620;28;20240;-65
2023/05/24 02:02:43;;;;;;;8.43;2.90;;;10.60;99.90;;;-141.84;59.91;20043.50;5033320;28;20217;-66
2023/05/24 02:05:12;;;;;;;9.30;2.87;;;10.60;99.90;;;-141.84;59.13;20015.03;5033799;28;20210;-66
2023/05/24 02:07:41;;;;;;;10.97;3.13;;;10.60;99.90;;;-141.84;59.64;20004.88;5033317;28;20293;-66
2023/05/24 02:10:10;;;;;;;7.87;3.00;;;10.60;99.90;;;-141.84;59.69;20002.84;5033894;28;20237;-67
2023/05/24 02:12:39;;;;;;;9.03;2.67;;;10.40;99.90;;;-141.84;60.32;19982.53;5033424;28;20304;-66
2023/05/24 02:15:10;;;;;;;6.50;2.53;;;10.40;99.90;;;-141.84;59.50;19978.47;5033144;28;20284;-67
2023/05/24 02:17:39;;;;;;;11.87;2.83;;;10.40;99.90;;;-141.84;59.58;20010.97;5032928;28;20225;-67
2023/05/24 02:20:09;;;;;;;7.03;3.33;;;10.40;99.90;;;-141.84;60.18;19974.41;5033543;28;20209;-66
2023/05/24 02:22:37;;;;;;;6.83;2.80;;;10.40;99.90;;;-141.84;59.57;20049.59;5032721;28;20602;-66
2023/05/24 02:25:07;;;;;;;8.73;2.70;;;10.40;99.90;;;-141.84;59.91;20004.88;5032851;28;20260;-66
2023/05/24 02:27:35;;;;;;;10.60;3.53;;;10.40;99.90;;;-141.84;59.36;20013.00;5032648;28;20332;-67
2023/05/24 02:30:06;;;;;;;7.87;2.47;;;10.40;99.90;;;-141.84;60.00;19996.75;5032390;28;20213;-66
2023/05/24 02:32:35;;;;;;;7.97;3.00;;;10.40;99.90;;;-141.84;59.72;20004.88;5032341;28;20262;-66
2023/05/24 02:35:04;;;;;;;5.93;2.67;;;10.40;99.90;;;-141.84;59.30;20004.88;5032859;28;20190;-66
2023/05/24 02:37:32;;;;;;;6.07;2.50;;;10.40;99.90;;;-141.84;59.46;20027.25;5032605;28;20327;-66
2023/05/24 02:40:02;;;;;;;8.70;2.83;;;10.40;99.90;;;-141.84;60.37;19976.44;5032588;28;20549;-66
2023/05/24 02:42:30;;;;;;;7.90;2.80;;;10.40;99.90;;;-141.84;60.87;19974.41;5032612;28;20199;-67
2023/05/24 02:44:59;;;;;;;10.50;3.10;;;10.30;99.90;;;-141.84;60.70;19960.16;5012524;28;20302;-66
2023/05/24 02:47:28;;;;;;;9.47;2.77;;;10.40;99.90;;;-141.84;60.02;19986.59;5012396;28;20210;-66
2023/05/24 02:49:57;;;;;;;9.90;2.90;;;10.40;99.90;;;-141.84;60.09;20017.09;5011819;28;20202;-66
2023/05/24 02:52:25;;;;;;;8.93;3.03;;;10.40;99.90;;;-141.84;59.86;19992.69;5012400;28;20265;-66
2023/05/24 02:54:53;;;;;;;10.00;2.80;;;10.40;99.90;;;-141.84;60.30;19972.38;5012741;28;20257;-66
2023/05/24 02:57:21;;;;;;;11.63;2.60;;;10.40;99.90;;;-141.84;60.02;19980.50;5012242;28;20294;-66
2023/05/24 02:59:50;;;;;;;13.63;3.27;;;10.30;99.90;;;-141.84;59.34;20004.88;5018760;28;20236;-66
2023/05/24 03:02:18;;;;;;;8.57;2.60;;;10.40;99.90;;;-141.84;59.53;19992.69;5031914;28;20227;-67
2023/05/24 03:04:48;;;;;;;7.57;2.80;;;10.40;99.90;;;-141.84;58.87;20006.91;5032137;28;20638;-66
2023/05/24 03:07:16;;;;;;;8.73;2.70;;;10.50;99.90;;;-141.84;59.27;20021.16;5031951;28;20264;-65
2023/05/24 03:09:44;;;;;;;12.87;3.27;;;10.40;99.90;;;-141.84;59.32;20041.47;5032396;28;20286;-66
2023/05/24 03:12:12;;;;;;;12.43;3.50;;;10.40;99.90;;;-141.84;58.74;19980.50;5032002;28;20317;-66
2023/05/24 03:14:41;;;;;;;11.30;3.10;;;10.40;99.90;;;-141.84;58.56;20000.81;5031819;28;20309;-66
2023/05/24 03:17:09;;;;;;;7.47;2.97;;;10.40;99.90;;;-141.84;58.96;20013.00;5031661;28;20655;-66
2023/05/24 03:19:37;;;;;;;8.10;2.53;;;10.30;99.90;;;-141.84;59.05;20013.00;5031240;28;20649;-66
2023/05/24 03:22:06;;;;;;;8.37;2.90;;;10.30;99.90;;;-141.84;58.75;20006.91;5031577;28;20996;-66
2023/05/24 03:24:37;;;;;;;11.97;3.03;;;10.30;99.90;;;-141.84;59.58;19992.69;5031706;28;20238;-67
2023/05/24 03:27:07;;;;;;;14.33;3.43;;;10.20;99.90;;;-141.84;59.58;19996.75;5031794;28;20190;-67
2023/05/24 03:29:35;;;;;;;6.80;2.90;;;10.20;99.90;;;-141.84;59.26;20004.88;5031521;28;20217;-66
2023/05/24 03:32:04;;;;;;;9.03;3.00;;;10.30;99.90;;;-141.84;59.15;19962.19;4993080;28;20221;-66
2023/05/24 03:34:33;;;;;;;10.43;3.87;;;10.30;99.90;;;-141.84;59.27;19982.53;5012152;28;20526;-66
2023/05/24 03:37:01;;;;;;;6.93;2.60;;;10.20;99.90;;;-141.84;59.29;19945.94;5011908;28;20607;-67
2023/05/24 03:39:30;;;;;;;11.73;3.20;;;10.20;99.90;;;-141.84;59.36;19964.25;5028361;28;20194;-66
2023/05/24 03:41:59;;;;;;;8.67;3.13;;;10.20;99.90;;;-141.84;59.61;19954.06;5031162;28;20667;-66
2023/05/24 03:44:27;;;;;;;11.80;3.70;;;10.20;99.90;;;-141.84;58.87;19990.66;5030602;28;20746;-66
2023/05/24 03:46:55;;;;;;;8.33;3.17;;;10.20;99.90;;;-141.84;59.41;19996.75;5030756;28;20289;-66
2023/05/24 03:49:24;;;;;;;10.57;3.20;;;10.20;99.90;;;-141.84;58.95;19956.09;5030923;28;20301;-67
2023/05/24 03:51:52;;;;;;;10.10;3.43;;;10.20;99.90;;;-141.84;59.46;19962.19;5030885;28;20308;-67
2023/05/24 03:54:20;;;;;;;15.30;3.70;;;10.20;99.90;;;-141.84;59.67;20008.94;5031013;28;20644;-66
2023/05/24 03:56:52;;;;;;;12.47;3.43;;;10.30;99.90;;;-141.84;59.55;19972.38;5031049;28;20202;-67
2023/05/24 03:59:20;;;;;;;11.53;3.80;;;10.30;99.90;;;-141.84;59.50;19984.56;5030962;28;20244;-66
2023/05/24 04:01:48;;;;;;;13.50;4.00;;;10.40;99.90;;;-141.84;58.96;19992.69;5029860;28;20194;-66
2023/05/24 04:04:17;;;;;;;7.17;3.37;;;10.40;99.90;;;-141.84;58.77;20069.94;4979058;28;20253;-66
2023/05/24 04:06:46;;;;;;;11.37;3.60;;;10.40;99.90;;;-141.84;58.68;20021.16;5010927;28;20213;-66
2023/05/24 04:09:15;;;;;;;14.03;4.03;;;10.40;99.90;;;-141.84;58.60;20045.53;5010891;28;20240;-67
2023/05/24 04:11:43;;;;;;;12.77;4.00;;;10.50;99.90;;;-141.84;59.10;20041.47;5010923;28;20227;-68
2023/05/24 04:14:12;;;;;;;11.17;3.30;;;10.50;99.90;;;-141.84;58.39;20053.66;5015600;28;20220;-67
2023/05/24 04:16:43;;;;;;;12.80;3.70;;;10.60;99.90;;;-141.84;58.14;20059.75;5030705;28;20356;-67
2023/05/24 04:19:12;;;;;;;14.00;3.20;;;10.60;99.90;;;-141.84;58.40;20057.72;5030371;28;20240;-67
2023/05/24 04:21:40;;;;;;;12.37;3.70;;;10.60;99.90;;;-141.84;58.68;20029.28;5030871;28;20260;-66
2023/05/24 04:24:08;;;;;;;10.50;3.17;;;10.60;99.90;;;-141.84;59.03;20006.91;5030379;28;20241;-66
2023/05/24 04:26:37;;;;;;;11.70;3.67;;;10.60;99.90;;;-141.84;59.09;20013.00;5030598;28;20244;-66
2023/05/24 04:29:06;;;;;;;14.53;3.80;;;10.60;99.90;;;-141.84;58.54;20049.59;5030456;28;20209;-67
2023/05/24 04:31:36;;;;;;;11.67;3.27;;;10.70;99.90;;;-141.84;59.22;19994.72;5030154;28;22180;-67
2023/05/24 04:34:06;;;;;;;14.33;3.73;;;10.70;99.90;;;-141.84;58.69;20041.47;5030133;28;20292;-66
2023/05/24 04:36:34;;;;;;;9.77;3.60;;;10.70;99.90;;;-141.84;58.85;20033.34;5030459;28;20252;-66
2023/05/24 04:39:03;;;;;;;12.87;3.57;;;10.70;99.90;;;-141.84;58.82;20025.22;5030538;28;20285;-66
2023/05/24 04:41:34;;;;;;;11.90;3.97;;;10.70;99.90;;;-141.84;58.63;20045.53;5030728;28;20292;-67
2023/05/24 04:44:02;;;;;;;14.67;3.90;;;10.80;99.90;;;-141.84;58.58;20078.06;5030579;28;20280;-67
2023/05/24 04:46:31;;;;;;;11.37;3.87;;;10.80;99.90;;;-141.84;58.46;20096.34;5029974;28;20224;-66
2023/05/24 04:49:00;;;;;;;11.00;4.33;;;10.90;99.90;;;-141.84;58.40;20100.41;5030076;28;20701;-66
2023/05/24 04:51:29;;;;;;;12.53;3.90;;;10.90;99.90;;;-141.84;58.29;20086.19;5030394;28;20226;-66
2023/05/24 04:53:57;;;;;;;10.17;3.87;;;11.00;99.90;;;-141.84;58.23;20108.53;5030334;28;20252;-66
2023/05/24 04:56:25;;;;;;;11.80;3.80;;;11.00;99.90;;;-141.84;57.98;20114.63;5030024;28;20765;-66
2023/05/24 04:58:54;;;;;;;9.67;3.93;;;11.10;99.90;;;-141.84;57.31;20088.22;5029833;28;20655;-67
2023/05/24 05:01:22;;;;;;;16.70;4.43;;;11.00;99.90;;;-141.84;58.07;20080.09;5029708;28;20726;-67
2023/05/24 05:03:50;;;;;;;13.97;4.07;;;10.90;99.90;;;-141.84;58.12;20051.63;5030154;28;20198;-66
2023/05/24 05:06:20;;;;;;;10.93;3.57;;;10.90;99.90;;;-141.84;57.92;20102.44;5030398;28;20198;-67
2023/05/24 05:08:49;;;;;;;13.77;3.83;;;11.00;99.90;;;-141.84;57.64;20076.03;5011270;28;20234;-66
2023/05/24 05:11:17;;;;;;;11.60;3.33;;;10.90;99.90;;;-141.84;55.92;20114.63;5029807;28;20714;-67
2023/05/24 05:13:46;;;;;;;12.17;3.90;;;11.10;99.90;;;-141.84;56.12;20130.91;5033475;28;20276;-67
2023/05/24 05:16:15;;;;;;;11.37;3.73;;;11.10;99.90;;;-141.84;56.55;20090.25;5033688;28;20630;-66
2023/05/24 05:18:43;;;;;;;11.53;3.67;;;11.00;99.90;;;-141.84;56.95;20122.78;5033664;28;20701;-67
2023/05/24 05:21:11;;;;;;;12.17;3.87;;;11.10;99.90;;;-141.84;57.00;20128.88;5034050;28;20216;-67
2023/05/24 05:23:41;;;;;;;9.43;3.33;;;11.30;99.90;;;-141.84;54.83;20151.22;4998944;28;20245;-67
2023/05/24 05:26:10;;;;;;;13.30;4.10;;;11.30;99.90;;;-141.84;55.26;20153.25;5033952;28;20212;-66
2023/05/24 05:28:38;;;;;;;9.30;3.70;;;11.30;99.90;;;-141.84;54.75;20159.34;5034111;28;20234;-66
2023/05/24 05:31:06;;;;;;;10.23;3.93;;;11.30;99.90;;;-141.84;54.81;20167.47;5033346;28;20238;-68
2023/05/24 05:33:35;;;;;;;11.43;3.40;;;11.40;99.90;;;-141.84;55.12;20195.94;5033587;28;20296;-66
2023/05/24 05:36:06;;;;;;;13.23;4.17;;;11.40;99.90;;;-141.84;54.60;20141.06;5033706;28;20205;-66
2023/05/24 05:38:34;;;;;;;10.53;3.80;;;11.70;99.90;;;-141.84;54.95;20155.28;5033657;28;20277;-67
2023/05/24 05:41:04;;;;;;;13.70;4.70;;;11.50;99.90;;;-141.84;54.52;20210.16;5033782;28;20600;-66
2023/05/24 05:43:32;;;;;;;13.57;3.80;;;11.50;99.90;;;-141.84;54.23;20185.78;5033391;28;20222;-67
2023/05/24 05:46:00;;;;;;;12.37;4.00;;;11.60;99.90;;;-141.84;52.96;20234.56;5033502;28;20206;-67
2023/05/24 05:48:28;;;;;;;14.07;3.43;;;11.60;99.90;;;-141.84;52.77;20246.75;5033320;28;20214;-66
2023/05/24 05:50:56;;;;;;;9.87;3.60;;;11.60;99.90;;;-141.84;53.67;20206.09;5032965;28;20206;-66
2023/05/24 05:53:24;;;;;;;11.57;3.93;;;11.80;99.90;;;-141.84;53.25;20240.66;5033226;28;20222;-66
2023/05/24 05:55:53;;;;;;;12.37;4.03;;;11.90;99.90;;;-141.84;53.21;20265.03;5033624;28;20573;-67
2023/05/24 05:58:22;;;;;;;13.17;3.53;;;11.90;99.90;;;-141.84;52.18;20271.16;5033042;28;20368;-68
2023/05/24 06:00:51;;;;;;;11.23;3.40;;;12.00;99.90;;;-141.84;51.85;20305.69;5032840;28;20288;-66
2023/05/24 06:03:19;;;;;;;7.83;3.00;;;12.20;99.90;;;-141.84;51.66;20346.34;5032961;28;20712;-66
2023/05/24 06:05:47;;;;;;;12.13;3.93;;;12.40;99.90;;;-141.84;51.08;20356.50;5033155;28;20322;-66
2023/05/24 06:08:15;;;;;;;10.73;3.75;;;12.70;99.90;;;-141.84;49.28;20435.78;5033254;28;20244;-66
2023/05/24 06:10:44;;;;;;;10.40;3.30;;;12.80;99.90;;;-141.84;48.98;20472.38;5033166;28;20305;-66
2023/05/24 06:13:13;;;;;;;13.15;3.60;;;13.00;99.90;;;-141.84;47.96;20454.09;5033046;28;20225;-67
2023/05/24 06:15:43;;;;;;;11.25;4.00;;;13.00;99.90;;;-141.84;49.07;20470.34;5033002;28;20284;-66
2023/05/24 06:18:12;;;;;;;13.23;4.10;;;13.30;99.90;;;-141.84;48.76;20529.28;5032709;28;20621;-66
2023/05/24 06:20:40;;;;;;;11.02;3.78;;;13.40;99.90;;;-141.84;47.89;20578.09;5032427;28;20735;-65
2023/05/24 06:23:09;;;;;;;10.85;3.90;;;13.70;99.90;;;-141.84;46.86;20578.09;5032266;28;20576;-65
2023/05/24 06:25:37;;;;;;;10.38;3.60;;;13.60;99.90;;;-141.84;46.78;20565.88;5032399;28;20244;-66
2023/05/24 06:28:05;;;;;;;10.07;3.53;;;13.60;99.90;;;-141.84;47.41;20523.19;5033104;28;20480;-66
2023/05/24 06:30:33;;;;;;;13.02;4.28;;;13.50;99.90;;;-141.84;46.96;20529.28;5032089;28;20205;-66
2023/05/24 06:33:03;;;;;;;12.65;3.53;;;13.50;99.90;;;-141.84;47.34;20537.44;5032171;28;20234;-66
2023/05/24 06:35:31;;;;;;;13.75;3.13;;;13.50;99.90;;;-141.84;47.08;20541.50;5032554;28;20289;-67
2023/05/24 06:38:00;;;;;;;8.52;3.53;;;13.40;99.90;;;-141.84;48.09;20519.13;5028506;28;20213;-65
2023/05/24 06:40:28;;;;;;;11.27;3.55;;;13.50;99.90;;;-141.84;48.21;20545.56;5018867;28;20635;-66
2023/05/24 06:42:57;;;;;;;10.65;3.78;;;13.60;99.90;;;-141.84;47.40;20535.41;5032411;28;20190;-68
2023/05/24 06:45:25;;;;;;;12.32;3.70;;;13.50;99.90;;;-141.84;47.40;20515.06;5032194;28;20300;-66
2023/05/24 06:47:53;;;;;;;10.38;4.13;;;13.60;99.90;;;-141.84;47.92;20476.44;5032603;28;20214;-67
2023/05/24 06:50:23;;;;;;;12.05;3.80;;;13.40;99.90;;;-141.84;48.00;20525.22;5032016;28;20240;-66
2023/05/24 06:52:51;;;;;;;13.52;3.85;;;13.40;99.90;;;-141.84;48.11;20506.94;5032682;28;20638;-66
2023/05/24 06:55:20;;;;;;;11.10;4.25;;;13.40;99.90;;;-141.84;48.62;20521.16;5032432;28;20236;-66
2023/05/24 06:57:49;;;;;;;12.05;3.88;;;13.50;99.90;;;-141.84;47.93;20545.56;5032323;28;20293;-65
2023/05/24 07:00:18;;;;;;;10.95;3.88;;;13.40;99.90;;;-141.84;47.55;20551.66;5031905;28;20212;-67
2023/05/24 07:02:46;;;;;;;14.15;4.30;;;13.60;99.90;;;-141.84;47.51;20549.63;5031901;28;20198;-66
2023/05/24 07:05:14;;;;;;;12.32;3.92;;;13.60;99.90;;;-141.84;47.79;20555.72;5032054;28;20210;-66
2023/05/24 07:07:44;;;;;;;11.73;4.07;;;13.60;99.90;;;-141.84;47.42;20565.88;5032036;28;20234;-66
2023/05/24 07:10:13;;;;;;;10.25;3.70;;;13.70;99.90;;;-141.84;48.10;20561.81;5032230;28;20234;-67
2023/05/24 07:12:41;;;;;;;13.43;4.15;;;13.80;99.90;;;-141.84;47.79;20582.16;5031883;28;20206;-64
2023/05/24 07:15:10;;;;;;;9.13;3.58;;;13.80;99.90;;;-141.84;48.09;20594.34;5028737;28;20272;-66
2023/05/24 07:17:38;;;;;;;14.77;4.75;;;13.80;99.90;;;-141.84;47.61;20571.97;5031218;28;20208;-66
2023/05/24 07:20:09;;;;;;;17.33;4.60;;;13.70;99.90;;;-141.84;47.83;20545.56;5031677;28;20205;-66
2023/05/24 07:22:38;;;;;;;13.10;3.78;;;13.70;99.90;;;-141.84;48.15;20622.81;5031498;28;20193;-65
2023/05/24 07:25:09;;;;;;;8.35;3.60;;;13.80;99.90;;;-141.84;46.36;20639.06;5031314;28;20838;-61
2023/05/24 07:27:37;;;;;;;15.50;4.40;;;13.80;99.90;;;-141.84;46.10;20637.03;5031107;28;20260;-65
2023/05/24 07:30:07;;;;;;;8.45;3.30;;;14.10;99.90;;;-141.84;45.72;20710.22;5031246;28;20292;-66
2023/05/24 07:32:55;;;;;;;12.68;4.22;;;14.40;99.90;;;-141.84;45.59;20728.50;5031070;28;20229;-62
2023/05/24 07:35:23;;;;;;;9.38;3.60;;;14.60;99.90;;;-141.84;45.17;20777.28;5030946;28;20233;-63
2023/05/24 07:37:52;;;;;;;10.80;4.05;;;14.60;99.90;;;-141.84;44.82;20807.78;5031127;28;20202;-69
2023/05/24 07:40:21;;;;;;;12.45;4.18;;;14.80;99.90;;;-141.84;45.26;20750.88;5031263;28;20255;-63
2023/05/24 07:42:50;;;;;;;10.25;3.28;;;14.70;99.90;;;-141.84;45.68;20718.34;5030670;28;20242;-64
2023/05/24 07:45:18;;;;;;;12.75;3.38;;;14.50;99.90;;;-141.84;45.75;20651.25;5030854;28;20202;-62
2023/05/24 07:47:46;;;;;;;12.93;3.90;;;14.50;99.90;;;-141.84;47.02;20635.00;5030132;28;20659;-61
2023/05/24 07:50:15;;;;;;;12.05;3.92;;;14.20;99.90;;;-141.84;48.03;20598.41;5031252;28;20213;-62
2023/05/24 07:52:44;;;;;;;15.13;4.38;;;14.10;99.90;;;-141.84;48.56;20535.41;5030780;28;20233;-62
2023/05/24 07:55:13;;;;;;;13.38;4.72;;;14.00;99.90;;;-141.84;49.05;20551.66;5030601;28;20580;-63
2023/05/24 07:57:42;;;;;;;15.77;4.20;;;13.70;99.90;;;-141.84;49.21;20511.00;5030568;28;20694;-62
2023/05/24 08:00:13;;;;;;;9.38;3.75;;;13.70;99.90;;;-141.84;48.58;20630.94;5030421;28;20305;-63
2023/05/24 08:02:42;;;;;;;11.43;4.10;;;13.90;99.90;;;-141.84;48.29;20565.88;5029878;28;20607;-64
2023/05/24 08:05:12;;;;;;;13.07;3.88;;;13.80;99.90;;;-141.84;47.69;20641.09;5030424;28;20685;-64
2023/05/24 08:07:41;;;;;;;13.02;3.85;;;14.00;99.90;;;-141.84;46.92;20645.16;5030475;28;20213;-64
2023/05/24 08:10:12;;;;;;;13.45;4.13;;;14.20;99.90;;;-141.84;46.39;20714.28;5029917;28;20214;-63
2023/05/24 08:12:42;;;;;;;13.73;4.18;;;14.20;99.90;;;-141.84;46.77;20679.72;5030533;28;20210;-65
2023/05/24 08:15:11;;;;;;;16.17;4.65;;;14.30;99.90;;;-141.84;47.08;20665.50;5030192;28;20226;-64
2023/05/24 08:17:39;;;;;;;11.15;4.10;;;14.30;99.90;;;-141.84;46.65;20683.78;5030269;28;20233;-64
2023/05/24 08:20:12;;;;;;;13.15;3.42;;;14.30;99.90;;;-141.84;47.00;20665.50;5030453;28;20194;-64
2023/05/24 08:22:41;;;;;;;14.77;4.80;;;14.10;99.90;;;-141.84;47.01;20651.25;5030065;28;20654;-65
2023/05/24 08:25:10;;;;;;;12.93;4.05;;;14.00;99.90;;;-141.84;47.69;20641.09;5030326;28;20198;-69
2023/05/24 08:27:38;;;;;;;11.93;4.00;;;14.10;99.90;;;-141.84;47.66;20681.75;5029970;28;20202;-66
2023/05/24 08:30:09;;;;;;;10.05;3.83;;;14.20;99.90;;;-141.84;47.17;20769.16;5029467;28;20201;-65
2023/05/24 08:32:38;;;;;;;13.52;4.07;;;14.50;99.90;;;-141.84;45.74;20793.56;5029240;28;20240;-64
2023/05/24 08:35:07;;;;;;;11.32;4.20;;;14.60;99.90;;;-141.84;46.05;20795.59;5030087;28;20245;-64
2023/05/24 08:37:47;;;;;;;12.48;4.43;;;14.70;99.90;;;-141.84;45.67;20728.50;5030171;28;20188;-64
2023/05/24 08:40:17;;;;;;;10.70;3.92;;;14.50;99.90;;;-141.84;46.55;20730.53;5030153;28;20206;-64
2023/05/24 08:42:45;;;;;;;10.13;4.15;;;14.40;99.90;;;-141.84;44.90;20848.44;5029754;28;20225;-65
2023/05/24 08:45:17;;;;;;;12.13;3.78;;;14.80;99.90;;;-141.84;43.66;20927.72;5029520;28;20202;-65
2023/05/24 08:47:47;;;;;;;10.70;3.83;;;15.20;99.90;;;-141.84;43.11;20929.75;5030880;28;20190;-69
2023/05/24 08:50:16;;;;;;;10.25;3.83;;;15.50;99.90;;;-141.84;43.18;20895.19;5033893;28;20182;-69
2023/05/24 08:52:45;;;;;;;12.57;4.20;;;15.40;99.90;;;-141.84;43.35;20923.66;5033674;28;20689;-69
2023/05/24 08:55:15;;;;;;;9.45;3.47;;;15.50;99.90;;;-141.84;44.08;20874.88;5033502;28;20590;-67
2023/05/24 08:57:46;;;;;;;8.60;3.72;;;15.50;99.90;;;-141.84;44.04;20887.06;5033411;28;20714;-63
2023/05/24 09:00:18;;;;;;;9.43;4.10;;;15.60;99.90;;;-141.84;43.84;20803.72;5033103;28;20280;-64
2023/05/24 09:02:47;;;;;;;10.25;4.15;;;15.30;99.90;;;-141.84;44.52;20767.13;5033629;28;20248;-64
2023/05/24 09:05:16;;;;;;;9.80;3.88;;;15.00;99.90;;;-141.84;44.12;20826.09;5033471;28;20202;-64
2023/05/24 09:07:46;;;;;;;10.85;4.00;;;15.10;99.90;;;-141.84;44.19;20789.50;5033678;28;20213;-65
2023/05/24 09:10:15;;;;;;;11.02;3.50;;;15.20;99.90;;;-141.84;44.39;20748.84;5033649;28;20252;-65
2023/05/24 09:12:50;;;;;;;9.07;4.28;;;15.00;99.90;;;-141.84;44.14;20834.22;5033443;28;20206;-67
2023/05/24 09:15:20;;;;;;;9.50;3.67;;;15.20;99.90;;;-141.84;43.38;20939.94;5032906;28;20208;-68
2023/05/24 09:17:48;;;;;;;8.00;3.75;;;15.60;99.90;;;-141.84;42.42;21023.28;5033196;28;20285;-67
2023/05/24 09:20:17;;;;;;;11.18;4.00;;;16.00;99.90;;;-141.84;42.40;20944.00;5033354;28;20206;-64
2023/05/24 09:22:53;;;;;;;10.85;3.92;;;15.80;99.90;;;-141.84;42.68;20960.25;5033099;28;20607;-64
2023/05/24 09:25:21;;;;;;;9.88;3.53;;;15.80;99.90;;;-141.84;43.66;20925.69;5033161;28;20221;-64
2023/05/24 09:27:51;;;;;;;9.27;3.38;;;15.90;99.90;;;-141.84;44.11;20856.56;5033193;28;20201;-68
2023/05/24 09:30:21;;;;;;;9.68;3.80;;;15.70;99.90;;;-141.84;44.17;20834.22;5033101;28;20222;-66
2023/05/24 09:32:58;;;;;;;11.23;3.80;;;15.40;99.90;;;-141.84;44.14;20866.75;5032810;28;20678;-69
2023/05/24 09:35:27;;;;;;;12.25;4.00;;;15.30;99.90;;;-141.84;44.62;20933.81;5033217;28;20209;-68
2023/05/24 09:37:58;;;;;;;9.90;4.28;;;15.60;99.90;;;-141.84;43.46;20905.38;5033483;28;20194;-68
2023/05/24 09:40:28;;;;;;;12.80;4.22;;;15.50;99.90;;;-141.84;43.34;20923.66;5033531;28;20264;-68
2023/05/24 09:43:08;;;;;;;10.57;3.65;;;15.60;99.90;;;-141.84;44.09;20968.38;5032791;28;20513;-68
2023/05/24 09:45:43;;;;;;;10.55;4.45;;;15.80;99.90;;;-141.84;43.85;21035.47;5032927;28;20194;-68
2023/05/24 09:48:12;;;;;;;11.15;4.63;;;16.00;99.90;;;-141.84;42.59;21047.69;5032877;28;20691;-64
2023/05/24 09:50:40;;;;;;;12.77;4.40;;;16.20;99.90;;;-141.84;42.63;21122.91;5033180;28;20202;-69
2023/05/24 09:53:09;;;;;;;9.73;4.05;;;16.30;99.90;;;-141.84;41.58;21108.66;5032950;28;20559;-70
2023/05/24 09:55:37;;;;;;;8.40;3.63;;;16.30;99.90;;;-141.84;41.16;21126.97;5032779;28;20253;-66
2023/05/24 09:58:08;;;;;;;9.88;3.75;;;16.60;99.90;;;-141.84;40.44;21110.69;5032353;28;20260;-67
2023/05/24 10:00:41;;;;;;;8.00;3.78;;;16.80;99.90;;;-141.84;39.83;21179.81;5032839;28;20290;-67
2023/05/24 10:03:11;;;;;;;8.93;3.53;;;16.90;99.90;;;-141.84;38.13;21196.09;5032170;28;20256;-65
2023/05/24 10:05:44;;;;;;;9.20;3.53;;;16.90;99.90;;;-141.84;39.63;21106.63;5032820;28;20182;-66
2023/05/24 10:08:14;;;;;;;8.48;3.80;;;16.90;99.90;;;-141.84;40.24;21051.75;5032583;28;20642;-67
2023/05/24 10:10:43;;;;;;;8.00;4.25;;;16.60;99.90;;;-141.84;41.39;21004.97;5030976;28;20213;-67
2023/05/24 10:13:14;;;;;;;9.70;4.20;;;16.30;99.90;;;-141.84;42.36;21007.00;5033093;28;20213;-65